PWSweather.com
Personal Weather Stations
Station Observations
KJ4AJP
Beautiful Downtown Gardner, Martin, TN 38237

Beautiful Downtown GardnerMartin, TN 38237

Lat: 36.358, Lon: -88.8994

Elevation: 384.3

Station Type: TP1080WC

http://weather.mambm.com/

High Low Average
Temperature 26.1°F-3.3°C 9.0°F-12.8°C 16.7°F-8.5°C
Dew Point 15.4°F-9.2°C 5.2°F-14.9°C 10.2°F-12.1°C
Winds 9.8 mph 15.8 kmh Calm Calm 2.0 mph WNW3.2 kmh WNW
Wind Gusts 19.0 mph30.6 kmh -- 7.0 mph11.3 kmh
Humidity 91% 57% 75%
Pressure 30.38 in1028.8 mb 30.22 in1023.4 mb -
Precipitation 0.00 in0.0 mm - -
Hour Temp Dew Point Humidity Winds Wind Gusts Pressure Precip Precip Rate Daily Precip Total
12:00 AM 15.1°F-9.4°C 12.2°F-11.0°C 88% Calm Calm 3.1 mph5.0 kmh 30.22 in1023.4 mb 0.00 in0.0 mm 0.00 in0.0 mm 0.00 in0.0 mm
12:15 AM 14.7°F-9.6°C 12.1°F-11.1°C 89% 0.7 mph NNW1.1 kmh NNW 1.6 mph2.6 kmh 30.23 in1023.7 mb 0.00 in0.0 mm 0.00 in0.0 mm 0.00 in0.0 mm
12:30 AM 14.5°F-9.7°C 11.9°F-11.2°C 89% 1.6 mph NNW2.6 kmh NNW 4.5 mph7.2 kmh 30.23 in1023.7 mb 0.00 in0.0 mm 0.00 in0.0 mm 0.00 in0.0 mm
12:45 AM 14.7°F-9.6°C 12.4°F-10.9°C 90% 3.1 mph NNW5.0 kmh NNW 9.2 mph14.8 kmh 30.22 in1023.4 mb 0.00 in0.0 mm 0.00 in0.0 mm 0.00 in0.0 mm
01:00 AM 17.1°F-8.3°C 14.9°F-9.5°C 91% 3.8 mph N6.1 kmh N 7.6 mph12.2 kmh 30.22 in1023.4 mb 0.00 in0.0 mm 0.00 in0.0 mm 0.00 in0.0 mm
01:15 AM 18.0°F-7.8°C 15.3°F-9.3°C 89% 2.2 mph NNW3.5 kmh NNW 7.6 mph12.2 kmh 30.22 in1023.4 mb 0.00 in0.0 mm 0.00 in0.0 mm 0.00 in0.0 mm
01:30 AM 18.3°F-7.6°C 15.4°F-9.2°C 88% 4.5 mph NNW7.2 kmh NNW 9.2 mph14.8 kmh 30.22 in1023.4 mb 0.00 in0.0 mm 0.00 in0.0 mm 0.00 in0.0 mm
01:45 AM 18.5°F-7.5°C 15.3°F-9.3°C 87% 3.1 mph N5.0 kmh N 8.3 mph13.4 kmh 30.22 in1023.4 mb 0.00 in0.0 mm 0.00 in0.0 mm 0.00 in0.0 mm
02:00 AM 18.1°F-7.7°C 14.4°F-9.8°C 85% 2.2 mph N3.5 kmh N 8.3 mph13.4 kmh 30.23 in1023.7 mb 0.00 in0.0 mm 0.00 in0.0 mm 0.00 in0.0 mm
02:15 AM 18.1°F-7.7°C 14.4°F-9.8°C 85% 9.8 mph N15.8 kmh N 15.9 mph25.6 kmh 30.24 in1024.0 mb 0.00 in0.0 mm 0.00 in0.0 mm 0.00 in0.0 mm
02:30 AM 18.1°F-7.7°C 13.9°F-10.1°C 83% 6.0 mph N9.7 kmh N 16.8 mph27.0 kmh 30.24 in1024.0 mb 0.00 in0.0 mm 0.00 in0.0 mm 0.00 in0.0 mm
02:45 AM 17.8°F-7.9°C 13.3°F-10.4°C 82% 7.6 mph N12.2 kmh N 14.5 mph23.3 kmh 30.24 in1024.0 mb 0.00 in0.0 mm 0.00 in0.0 mm 0.00 in0.0 mm
03:00 AM 17.4°F-8.1°C 12.6°F-10.8°C 81% 5.4 mph N8.7 kmh N 13.0 mph20.9 kmh 30.25 in1024.4 mb 0.00 in0.0 mm 0.00 in0.0 mm 0.00 in0.0 mm
03:15 AM 16.9°F-8.4°C 12.1°F-11.1°C 81% 5.4 mph N8.7 kmh N 9.8 mph15.8 kmh 30.25 in1024.4 mb 0.00 in0.0 mm 0.00 in0.0 mm 0.00 in0.0 mm
03:30 AM 16.3°F-8.7°C 11.6°F-11.3°C 81% 4.5 mph N7.2 kmh N 14.5 mph23.3 kmh 30.26 in1024.7 mb 0.00 in0.0 mm 0.00 in0.0 mm 0.00 in0.0 mm
03:45 AM 16.0°F-8.9°C 11.2°F-11.6°C 81% 7.6 mph N12.2 kmh N 19.0 mph30.6 kmh 30.25 in1024.4 mb 0.00 in0.0 mm 0.00 in0.0 mm 0.00 in0.0 mm
04:00 AM 15.4°F-9.2°C 10.4°F-12.0°C 80% 4.5 mph N7.2 kmh N 15.9 mph25.6 kmh 30.26 in1024.7 mb 0.00 in0.0 mm 0.00 in0.0 mm 0.00 in0.0 mm
04:15 AM 14.9°F-9.5°C 10.2°F-12.1°C 81% 3.8 mph N6.1 kmh N 8.3 mph13.4 kmh 30.26 in1024.7 mb 0.00 in0.0 mm 0.00 in0.0 mm 0.00 in0.0 mm
04:30 AM 14.5°F-9.7°C 9.8°F-12.3°C 81% 3.8 mph N6.1 kmh N 13.6 mph21.9 kmh 30.25 in1024.4 mb 0.00 in0.0 mm 0.00 in0.0 mm 0.00 in0.0 mm
04:45 AM 14.2°F-9.9°C 9.5°F-12.5°C 81% 6.0 mph N9.7 kmh N 13.0 mph20.9 kmh 30.25 in1024.4 mb 0.00 in0.0 mm 0.00 in0.0 mm 0.00 in0.0 mm
05:00 AM 13.6°F-10.2°C 9.0°F-12.8°C 81% 2.2 mph NNW3.5 kmh NNW 12.1 mph19.5 kmh 30.26 in1024.7 mb 0.00 in0.0 mm 0.00 in0.0 mm 0.00 in0.0 mm
05:15 AM 13.1°F-10.5°C 8.4°F-13.1°C 81% 2.2 mph NNW3.5 kmh NNW 6.0 mph9.7 kmh 30.26 in1024.7 mb 0.00 in0.0 mm 0.00 in0.0 mm 0.00 in0.0 mm
05:30 AM 12.6°F-10.8°C 8.2°F-13.2°C 82% 3.1 mph NNW5.0 kmh NNW 8.3 mph13.4 kmh 30.26 in1024.7 mb 0.00 in0.0 mm 0.00 in0.0 mm 0.00 in0.0 mm
05:45 AM 12.2°F-11.0°C 7.8°F-13.4°C 82% 3.1 mph N5.0 kmh N 8.3 mph13.4 kmh 30.27 in1025.1 mb 0.00 in0.0 mm 0.00 in0.0 mm 0.00 in0.0 mm
06:00 AM 11.8°F-11.2°C 7.5°F-13.6°C 82% 1.6 mph NNW2.6 kmh NNW 6.9 mph11.1 kmh 30.27 in1025.1 mb 0.00 in0.0 mm 0.00 in0.0 mm 0.00 in0.0 mm
06:15 AM 11.5°F-11.4°C 7.1°F-13.8°C 82% 2.2 mph NNW3.5 kmh NNW 6.9 mph11.1 kmh 30.28 in1025.4 mb 0.00 in0.0 mm 0.00 in0.0 mm 0.00 in0.0 mm
06:30 AM 11.3°F-11.5°C 7.2°F-13.8°C 83% 3.8 mph N6.1 kmh N 9.2 mph14.8 kmh 30.29 in1025.7 mb 0.00 in0.0 mm 0.00 in0.0 mm 0.00 in0.0 mm
06:45 AM 10.9°F-11.7°C 6.9°F-13.9°C 83% 0.7 mph NNW1.1 kmh NNW 6.0 mph9.7 kmh 30.30 in1026.1 mb 0.00 in0.0 mm 0.00 in0.0 mm 0.00 in0.0 mm
07:00 AM 10.6°F-11.9°C 6.5°F-14.2°C 83% 3.1 mph NNW5.0 kmh NNW 14.5 mph23.3 kmh 30.31 in1026.4 mb 0.00 in0.0 mm 0.00 in0.0 mm 0.00 in0.0 mm
07:15 AM 10.2°F-12.1°C 6.2°F-14.3°C 83% 3.1 mph NW5.0 kmh NW 9.8 mph15.8 kmh 30.31 in1026.4 mb 0.00 in0.0 mm 0.00 in0.0 mm 0.00 in0.0 mm
07:30 AM 9.9°F-12.3°C 5.8°F-14.6°C 83% 1.6 mph NNW2.6 kmh NNW 7.6 mph12.2 kmh 30.32 in1026.8 mb 0.00 in0.0 mm 0.00 in0.0 mm 0.00 in0.0 mm
07:45 AM 10.4°F-12.0°C 6.3°F-14.3°C 83% 2.2 mph NNW3.5 kmh NNW 7.6 mph12.2 kmh 30.32 in1026.8 mb 0.00 in0.0 mm 0.00 in0.0 mm 0.00 in0.0 mm
08:00 AM 9.3°F-12.6°C 5.5°F-14.7°C 84% 3.1 mph N5.0 kmh N 8.3 mph13.4 kmh 30.34 in1027.4 mb 0.00 in0.0 mm 0.00 in0.0 mm 0.00 in0.0 mm
08:15 AM 9.0°F-12.8°C 5.2°F-14.9°C 84% 0.7 mph NW1.1 kmh NW 6.0 mph9.7 kmh 30.33 in1027.1 mb 0.00 in0.0 mm 0.00 in0.0 mm 0.00 in0.0 mm
08:30 AM 9.0°F-12.8°C 5.2°F-14.9°C 84% 2.2 mph NNW3.5 kmh NNW 7.6 mph12.2 kmh 30.33 in1027.1 mb 0.00 in0.0 mm 0.00 in0.0 mm 0.00 in0.0 mm
08:45 AM 9.1°F-12.7°C 5.6°F-14.7°C 85% 2.2 mph N3.5 kmh N 9.8 mph15.8 kmh 30.34 in1027.4 mb 0.00 in0.0 mm 0.00 in0.0 mm 0.00 in0.0 mm
09:00 AM 9.9°F-12.3°C 6.3°F-14.3°C 85% 3.1 mph NNW5.0 kmh NNW 6.9 mph11.1 kmh 30.34 in1027.4 mb 0.00 in0.0 mm 0.00 in0.0 mm 0.00 in0.0 mm
09:15 AM 10.9°F-11.7°C 7.1°F-13.8°C 84% 3.1 mph NNW5.0 kmh NNW 7.6 mph12.2 kmh 30.35 in1027.8 mb 0.00 in0.0 mm 0.00 in0.0 mm 0.00 in0.0 mm
09:30 AM 11.5°F-11.4°C 7.1°F-13.8°C 82% 6.0 mph N9.7 kmh N 15.9 mph25.6 kmh 30.35 in1027.8 mb 0.00 in0.0 mm 0.00 in0.0 mm 0.00 in0.0 mm
09:45 AM 12.0°F-11.1°C 7.7°F-13.5°C 82% 6.0 mph N9.7 kmh N 14.5 mph23.3 kmh 30.36 in1028.1 mb 0.00 in0.0 mm 0.00 in0.0 mm 0.00 in0.0 mm
10:00 AM 12.6°F-10.8°C 7.9°F-13.4°C 81% 3.8 mph N6.1 kmh N 11.4 mph18.3 kmh 30.37 in1028.4 mb 0.00 in0.0 mm 0.00 in0.0 mm 0.00 in0.0 mm
10:15 AM 13.1°F-10.5°C 8.2°F-13.2°C 80% 7.6 mph N12.2 kmh N 13.6 mph21.9 kmh 30.37 in1028.4 mb 0.00 in0.0 mm 0.00 in0.0 mm 0.00 in0.0 mm
10:30 AM 13.8°F-10.1°C 8.6°F-13.0°C 79% 6.0 mph NNW9.7 kmh NNW 9.8 mph15.8 kmh 30.38 in1028.8 mb 0.00 in0.0 mm 0.00 in0.0 mm 0.00 in0.0 mm
10:45 AM 14.5°F-9.7°C 9.3°F-12.6°C 79% 2.2 mph N3.5 kmh N 10.7 mph17.2 kmh 30.38 in1028.8 mb 0.00 in0.0 mm 0.00 in0.0 mm 0.00 in0.0 mm
11:00 AM 15.8°F-9.0°C 10.2°F-12.1°C 78% 2.2 mph NW3.5 kmh NW 8.3 mph13.4 kmh 30.38 in1028.8 mb 0.00 in0.0 mm 0.00 in0.0 mm 0.00 in0.0 mm
11:15 AM 16.5°F-8.6°C 10.6°F-11.9°C 77% 3.8 mph N6.1 kmh N 9.8 mph15.8 kmh 30.38 in1028.8 mb 0.00 in0.0 mm 0.00 in0.0 mm 0.00 in0.0 mm
11:30 AM 16.9°F-8.4°C 10.7°F-11.8°C 76% 6.9 mph N11.1 kmh N 10.7 mph17.2 kmh 30.38 in1028.8 mb 0.00 in0.0 mm 0.00 in0.0 mm 0.00 in0.0 mm
11:45 AM 17.6°F-8.0°C 10.8°F-11.8°C 74% 3.8 mph N6.1 kmh N 11.4 mph18.3 kmh 30.38 in1028.8 mb 0.00 in0.0 mm 0.00 in0.0 mm 0.00 in0.0 mm
12:00 PM 18.1°F-7.7°C 11.0°F-11.7°C 73% 1.6 mph N2.6 kmh N 10.7 mph17.2 kmh 30.37 in1028.4 mb 0.00 in0.0 mm 0.00 in0.0 mm 0.00 in0.0 mm
12:15 PM 18.9°F-7.3°C 11.4°F-11.4°C 72% 1.6 mph N2.6 kmh N 12.1 mph19.5 kmh 30.35 in1027.8 mb 0.00 in0.0 mm 0.00 in0.0 mm 0.00 in0.0 mm
12:30 PM 19.8°F-6.8°C 11.9°F-11.2°C 71% 2.2 mph N3.5 kmh N 9.8 mph15.8 kmh 30.34 in1027.4 mb 0.00 in0.0 mm 0.00 in0.0 mm 0.00 in0.0 mm
12:45 PM 20.5°F-6.4°C 12.3°F-10.9°C 70% 0.7 mph N1.1 kmh N 9.8 mph15.8 kmh 30.34 in1027.4 mb 0.00 in0.0 mm 0.00 in0.0 mm 0.00 in0.0 mm
01:00 PM 21.2°F-6.0°C 12.7°F-10.7°C 69% 1.6 mph NNW2.6 kmh NNW 10.7 mph17.2 kmh 30.34 in1027.4 mb 0.00 in0.0 mm 0.00 in0.0 mm 0.00 in0.0 mm
01:15 PM 22.1°F-5.5°C 13.2°F-10.4°C 68% 3.1 mph NNW5.0 kmh NNW 9.2 mph14.8 kmh 30.33 in1027.1 mb 0.00 in0.0 mm 0.00 in0.0 mm 0.00 in0.0 mm
01:30 PM 22.6°F-5.2°C 13.0°F-10.6°C 66% 1.6 mph NNW2.6 kmh NNW 13.0 mph20.9 kmh 30.33 in1027.1 mb 0.00 in0.0 mm 0.00 in0.0 mm 0.00 in0.0 mm
01:45 PM 22.8°F-5.1°C 12.5°F-10.8°C 64% 5.4 mph N8.7 kmh N 13.0 mph20.9 kmh 30.33 in1027.1 mb 0.00 in0.0 mm 0.00 in0.0 mm 0.00 in0.0 mm
02:00 PM 23.4°F-4.8°C 12.7°F-10.7°C 63% 3.8 mph N6.1 kmh N 10.7 mph17.2 kmh 30.32 in1026.8 mb 0.00 in0.0 mm 0.00 in0.0 mm 0.00 in0.0 mm
02:15 PM 23.5°F-4.7°C 12.8°F-10.7°C 63% 6.0 mph NNW9.7 kmh NNW 10.7 mph17.2 kmh 30.32 in1026.8 mb 0.00 in0.0 mm 0.00 in0.0 mm 0.00 in0.0 mm
02:30 PM 24.4°F-4.2°C 13.3°F-10.4°C 62% 3.1 mph NNW5.0 kmh NNW 9.8 mph15.8 kmh 30.33 in1027.1 mb 0.00 in0.0 mm 0.00 in0.0 mm 0.00 in0.0 mm
02:45 PM 25.0°F-3.9°C 13.8°F-10.1°C 62% 2.2 mph NW3.5 kmh NW 7.6 mph12.2 kmh 30.33 in1027.1 mb 0.00 in0.0 mm 0.00 in0.0 mm 0.00 in0.0 mm
03:00 PM 25.3°F-3.7°C 13.4°F-10.3°C 60% 5.4 mph N8.7 kmh N 11.4 mph18.3 kmh 30.32 in1026.8 mb 0.00 in0.0 mm 0.00 in0.0 mm 0.00 in0.0 mm
03:15 PM 25.2°F-3.8°C 13.3°F-10.4°C 60% 1.6 mph NNW2.6 kmh NNW 11.4 mph18.3 kmh 30.32 in1026.8 mb 0.00 in0.0 mm 0.00 in0.0 mm 0.00 in0.0 mm
03:30 PM 25.9°F-3.4°C 13.9°F-10.1°C 60% 1.6 mph NNW2.6 kmh NNW 5.4 mph8.7 kmh 30.31 in1026.4 mb 0.00 in0.0 mm 0.00 in0.0 mm 0.00 in0.0 mm
03:45 PM 26.1°F-3.3°C 13.7°F-10.2°C 59% 1.6 mph WNW2.6 kmh WNW 9.2 mph14.8 kmh 30.32 in1026.8 mb 0.00 in0.0 mm 0.00 in0.0 mm 0.00 in0.0 mm
04:00 PM 25.7°F-3.5°C 12.6°F-10.8°C 57% 3.1 mph NNW5.0 kmh NNW 9.2 mph14.8 kmh 30.32 in1026.8 mb 0.00 in0.0 mm 0.00 in0.0 mm 0.00 in0.0 mm
04:15 PM 25.5°F-3.6°C 12.8°F-10.7°C 58% Calm Calm 8.3 mph13.4 kmh 30.32 in1026.8 mb 0.00 in0.0 mm 0.00 in0.0 mm 0.00 in0.0 mm
04:30 PM 25.2°F-3.8°C 12.5°F-10.8°C 58% 2.2 mph NNW3.5 kmh NNW 5.4 mph8.7 kmh 30.33 in1027.1 mb 0.00 in0.0 mm 0.00 in0.0 mm 0.00 in0.0 mm
04:45 PM 24.8°F-4.0°C 12.6°F-10.8°C 59% 0.7 mph NW1.1 kmh NW 6.9 mph11.1 kmh 30.33 in1027.1 mb 0.00 in0.0 mm 0.00 in0.0 mm 0.00 in0.0 mm
05:00 PM 24.8°F-4.0°C 12.6°F-10.8°C 59% 2.2 mph NW3.5 kmh NW 8.3 mph13.4 kmh 30.33 in1027.1 mb 0.00 in0.0 mm 0.00 in0.0 mm 0.00 in0.0 mm
05:15 PM 24.3°F-4.3°C 12.0°F-11.1°C 59% 1.6 mph NW2.6 kmh NW 6.0 mph9.7 kmh 30.33 in1027.1 mb 0.00 in0.0 mm 0.00 in0.0 mm 0.00 in0.0 mm
05:30 PM 23.2°F-4.9°C 11.4°F-11.4°C 60% Calm Calm 3.1 mph5.0 kmh 30.32 in1026.8 mb 0.00 in0.0 mm 0.00 in0.0 mm 0.00 in0.0 mm
05:45 PM 21.9°F-5.6°C 10.6°F-11.9°C 61% 1.6 mph WNW2.6 kmh WNW 4.5 mph7.2 kmh 30.33 in1027.1 mb 0.00 in0.0 mm 0.00 in0.0 mm 0.00 in0.0 mm
06:00 PM 20.8°F-6.2°C 9.9°F-12.3°C 62% 1.6 mph NW2.6 kmh NW 4.5 mph7.2 kmh 30.33 in1027.1 mb 0.00 in0.0 mm 0.00 in0.0 mm 0.00 in0.0 mm
06:15 PM 19.8°F-6.8°C 9.6°F-12.4°C 64% Calm Calm 3.1 mph5.0 kmh 30.33 in1027.1 mb 0.00 in0.0 mm 0.00 in0.0 mm 0.00 in0.0 mm
06:30 PM 18.9°F-7.3°C 9.1°F-12.7°C 65% Calm Calm 1.6 mph2.6 kmh 30.34 in1027.4 mb 0.00 in0.0 mm 0.00 in0.0 mm 0.00 in0.0 mm
06:45 PM 17.8°F-7.9°C 8.4°F-13.1°C 66% Calm Calm 0.7 mph1.1 kmh 30.34 in1027.4 mb 0.00 in0.0 mm 0.00 in0.0 mm 0.00 in0.0 mm
07:00 PM 17.1°F-8.3°C 8.4°F-13.1°C 68% Calm Calm 0.7 mph1.1 kmh 30.34 in1027.4 mb 0.00 in0.0 mm 0.00 in0.0 mm 0.00 in0.0 mm
07:15 PM 16.5°F-8.6°C 8.2°F-13.2°C 69% Calm Calm 0.7 mph1.1 kmh 30.34 in1027.4 mb 0.00 in0.0 mm 0.00 in0.0 mm 0.00 in0.0 mm
07:30 PM 16.0°F-8.9°C 7.7°F-13.5°C 69% Calm Calm -- 30.33 in1027.1 mb 0.00 in0.0 mm 0.00 in0.0 mm 0.00 in0.0 mm
07:45 PM 15.4°F-9.2°C 7.8°F-13.4°C 71% Calm Calm 0.7 mph1.1 kmh 30.34 in1027.4 mb 0.00 in0.0 mm 0.00 in0.0 mm 0.00 in0.0 mm
08:00 PM 14.9°F-9.5°C 7.6°F-13.6°C 72% Calm Calm -- 30.35 in1027.8 mb 0.00 in0.0 mm 0.00 in0.0 mm 0.00 in0.0 mm
08:15 PM 14.2°F-9.9°C 7.2°F-13.8°C 73% Calm Calm 1.6 mph2.6 kmh 30.34 in1027.4 mb 0.00 in0.0 mm 0.00 in0.0 mm 0.00 in0.0 mm
08:30 PM 14.0°F-10.0°C 7.3°F-13.7°C 74% Calm Calm 1.6 mph2.6 kmh 30.35 in1027.8 mb 0.00 in0.0 mm 0.00 in0.0 mm 0.00 in0.0 mm
08:45 PM 13.5°F-10.3°C 7.1°F-13.8°C 75% Calm Calm 0.7 mph1.1 kmh 30.35 in1027.8 mb 0.00 in0.0 mm 0.00 in0.0 mm 0.00 in0.0 mm
09:00 PM 13.3°F-10.4°C 6.9°F-13.9°C 75% Calm Calm -- 30.36 in1028.1 mb 0.00 in0.0 mm 0.00 in0.0 mm 0.00 in0.0 mm
09:15 PM 12.7°F-10.7°C 6.7°F-14.1°C 76% Calm Calm 1.6 mph2.6 kmh 30.35 in1027.8 mb 0.00 in0.0 mm 0.00 in0.0 mm 0.00 in0.0 mm
09:30 PM 12.4°F-10.9°C 6.6°F-14.1°C 77% Calm Calm 1.6 mph2.6 kmh 30.35 in1027.8 mb 0.00 in0.0 mm 0.00 in0.0 mm 0.00 in0.0 mm
09:45 PM 12.2°F-11.0°C 6.7°F-14.1°C 78% Calm Calm 0.7 mph1.1 kmh 30.35 in1027.8 mb 0.00 in0.0 mm 0.00 in0.0 mm 0.00 in0.0 mm
10:00 PM 12.0°F-11.1°C 6.8°F-14.0°C 79% 0.7 mph S1.1 kmh S 1.6 mph2.6 kmh 30.35 in1027.8 mb 0.00 in0.0 mm 0.00 in0.0 mm 0.00 in0.0 mm
10:15 PM 12.7°F-10.7°C 8.1°F-13.3°C 81% Calm Calm 1.6 mph2.6 kmh 30.35 in1027.8 mb 0.00 in0.0 mm 0.00 in0.0 mm 0.00 in0.0 mm
10:30 PM 13.8°F-10.1°C 9.4°F-12.6°C 82% Calm Calm 0.7 mph1.1 kmh 30.36 in1028.1 mb 0.00 in0.0 mm 0.00 in0.0 mm 0.00 in0.0 mm
10:45 PM 14.7°F-9.6°C 10.3°F-12.1°C 82% Calm Calm 1.6 mph2.6 kmh 30.35 in1027.8 mb 0.00 in0.0 mm 0.00 in0.0 mm 0.00 in0.0 mm
11:00 PM 15.3°F-9.3°C 10.8°F-11.8°C 82% Calm Calm 0.7 mph1.1 kmh 30.35 in1027.8 mb 0.00 in0.0 mm 0.00 in0.0 mm 0.00 in0.0 mm
11:15 PM 15.8°F-9.0°C 11.3°F-11.5°C 82% Calm Calm 1.6 mph2.6 kmh 30.36 in1028.1 mb 0.00 in0.0 mm 0.00 in0.0 mm 0.00 in0.0 mm
11:30 PM 16.3°F-8.7°C 11.9°F-11.2°C 82% Calm Calm 1.6 mph2.6 kmh 30.35 in1027.8 mb 0.00 in0.0 mm 0.00 in0.0 mm 0.00 in0.0 mm
11:45 PM 16.9°F-8.4°C 12.4°F-10.9°C 82% Calm Calm 0.7 mph1.1 kmh 30.35 in1027.8 mb 0.00 in0.0 mm 0.00 in0.0 mm 0.00 in0.0 mm